Flight Briefing for CPX213

Departure Arrival
Chicago/Rockford International Airport (KRFD)
Click to view FAA NOTAMS
Theodore Francis Green State Airport (KPVD)
Click to view FAA NOTAMS
Departure Time Arrival Time
0630 UTC 0800 UTC
Aircraft Distance
B767-300BDSF 790nm
Departure METAR Arrival METAR
KRFD 200954Z 21003KT 10SM SCT055 BKN075 OVC095 05/01 A3012 RMK AO2 SLP204 T00500006 KPVD 200951Z 27003KT 10SM SCT090 M02/M08 A3042 RMK AO2 SLP300 T10171078
Suggested Route
QUOTE JOT J146 GIJ J554 JHW TRAAD HNK WIPOR3


View recent IFR Routes data
Notes



Charts and Procedures

Charts for KRFD
No chart available
Charts for KPVD
No chart available

Windy.com Weather Map